Estación Meteorológica Peña el Pijo (Robertgarden) [ 11/19/17 19:00:33 CET ]

Fecha Hora Presion(HPa) Temp (°C) Humedad % Rocio (°C) Viento ( m/s) Direccion Lluvia 1Hora(mm) Lluvia 24H(mm) LLuvia Total(mm)
2017-Jul-18 01:01:43 1014.200 20.6 55 11.2         1437.96
2017-Jul-18 02:01:52 1014.100 20.0 57 11.2         1437.96
2017-Jul-18 03:01:23 1013.100 18.6 61 10.9         1437.96
2017-Jul-18 04:01:21 1012.800 17.3 66 10.9         1437.96
2017-Jul-18 05:01:21 1012.000 16.3 68 10.4         1437.96
2017-Jul-18 06:01:27 1011.800 16.4 71 11.2         1437.96
2017-Jul-18 07:01:42 1011.600 15.9 70 10.5         1437.96
2017-Jul-18 08:01:52 1011.500 16.1 70 10.7         1437.96
2017-Jul-18 09:01:51 1011.500 20.9 61 13.1         1437.96
2017-Jul-18 10:02:05 1011.300 26.6 41 12.3         1437.96
2017-Jul-18 11:02:00 1011.300 33.2 28 12.1         1437.96
2017-Jul-18 12:01:58 1011.300 33.5 25 10.5         1437.96
2017-Jul-18 13:01:50 1011.100 35.5 21 9.8         1437.96
2017-Jul-18 14:01:50 1010.900 35.3 21 9.6         1437.96
2017-Jul-18 15:01:45 1010.500 35.9 20 9.5         1437.96
2017-Jul-18 16:01:36 1010.500 35.5 20 9.1         1437.96
2017-Jul-18 17:01:44 1010.500 30.5 26 8.6         1437.96
2017-Jul-18 18:01:44 1012.300 28.6 29 8.8         1437.96
2017-Jul-18 19:01:48 1011.800 22.5 52 12.1         1437.96
2017-Jul-18 20:01:46 1010.500 25.1 41 10.9         1437.96
2017-Jul-18 21:01:58 1010.000 25.2 38 9.8         1437.96
2017-Jul-18 22:01:42 1010.500 22.1 46 9.9         1437.96
2017-Jul-18 23:01:56 1010.700 19.1 52 9.0         1437.96

Temperatura Máxima:35°    Temperatura Mínima:15°
Presión Máxima:1014.200 Hpa    Presión Mínima:1010.000 Hpa


Volver